sensor_id;sensor_type;location;lat;lon;timestamp;temperature;humidity
14705;DHT22;7442;50.840;3.396;2022-09-30T00:00:47;22.00;54.10
14705;DHT22;7442;50.840;3.396;2022-09-30T00:03:24;22.00;54.00
14705;DHT22;7442;50.840;3.396;2022-09-30T00:06:04;21.90;54.10
14705;DHT22;7442;50.840;3.396;2022-09-30T00:08:41;21.90;54.10
14705;DHT22;7442;50.840;3.396;2022-09-30T00:11:24;21.80;54.20
14705;DHT22;7442;50.840;3.396;2022-09-30T00:14:01;21.80;54.20
14705;DHT22;7442;50.840;3.396;2022-09-30T00:16:38;21.90;54.20
14705;DHT22;7442;50.840;3.396;2022-09-30T00:19:15;21.80;54.00
14705;DHT22;7442;50.840;3.396;2022-09-30T00:21:52;21.90;54.60
14705;DHT22;7442;50.840;3.396;2022-09-30T00:24:29;21.90;54.10
14705;DHT22;7442;50.840;3.396;2022-09-30T00:27:05;21.90;53.90
14705;DHT22;7442;50.840;3.396;2022-09-30T00:29:43;21.90;53.40
14705;DHT22;7442;50.840;3.396;2022-09-30T00:32:26;21.80;53.90
14705;DHT22;7442;50.840;3.396;2022-09-30T00:35:03;21.80;53.80
14705;DHT22;7442;50.840;3.396;2022-09-30T00:37:39;21.80;53.80
14705;DHT22;7442;50.840;3.396;2022-09-30T00:40:18;21.80;53.80
14705;DHT22;7442;50.840;3.396;2022-09-30T00:42:55;21.80;53.90
14705;DHT22;7442;50.840;3.396;2022-09-30T00:45:33;21.80;53.90
14705;DHT22;7442;50.840;3.396;2022-09-30T00:48:13;21.80;53.80
14705;DHT22;7442;50.840;3.396;2022-09-30T00:50:50;21.80;53.60
14705;DHT22;7442;50.840;3.396;2022-09-30T00:53:33;21.80;53.70
14705;DHT22;7442;50.840;3.396;2022-09-30T00:56:15;21.80;53.70
14705;DHT22;7442;50.840;3.396;2022-09-30T00:58:54;21.80;53.70
14705;DHT22;7442;50.840;3.396;2022-09-30T01:01:39;21.70;53.60
14705;DHT22;7442;50.840;3.396;2022-09-30T01:04:18;21.70;53.70
14705;DHT22;7442;50.840;3.396;2022-09-30T01:07:03;21.80;53.60
14705;DHT22;7442;50.840;3.396;2022-09-30T01:09:38;21.80;53.60
14705;DHT22;7442;50.840;3.396;2022-09-30T01:12:18;21.70;53.60
14705;DHT22;7442;50.840;3.396;2022-09-30T01:14:57;21.70;53.60
14705;DHT22;7442;50.840;3.396;2022-09-30T01:17:54;21.70;53.60
14705;DHT22;7442;50.840;3.396;2022-09-30T01:21:02;21.70;53.60
14705;DHT22;7442;50.840;3.396;2022-09-30T01:29:45;21.60;53.60
14705;DHT22;7442;50.840;3.396;2022-09-30T01:39:02;21.60;53.40
14705;DHT22;7442;50.840;3.396;2022-09-30T01:41:50;21.60;53.50
14705;DHT22;7442;50.840;3.396;2022-09-30T01:44:47;21.50;53.50
14705;DHT22;7442;50.840;3.396;2022-09-30T01:47:31;21.50;53.50
14705;DHT22;7442;50.840;3.396;2022-09-30T01:55:56;21.50;53.50
14705;DHT22;7442;50.840;3.396;2022-09-30T01:58:41;21.50;53.50
14705;DHT22;7442;50.840;3.396;2022-09-30T02:01:24;21.50;53.50
14705;DHT22;7442;50.840;3.396;2022-09-30T02:04:13;21.50;53.50
14705;DHT22;7442;50.840;3.396;2022-09-30T02:06:48;21.50;53.50
14705;DHT22;7442;50.840;3.396;2022-09-30T02:09:28;21.40;53.60
14705;DHT22;7442;50.840;3.396;2022-09-30T02:12:08;21.40;53.60
14705;DHT22;7442;50.840;3.396;2022-09-30T02:15:32;21.40;53.60
14705;DHT22;7442;50.840;3.396;2022-09-30T02:17:33;21.40;53.60
14705;DHT22;7442;50.840;3.396;2022-09-30T02:20:14;21.40;53.60
14705;DHT22;7442;50.840;3.396;2022-09-30T02:23:01;21.40;53.50
14705;DHT22;7442;50.840;3.396;2022-09-30T02:25:36;21.40;53.50
14705;DHT22;7442;50.840;3.396;2022-09-30T02:28:17;21.40;53.50
14705;DHT22;7442;50.840;3.396;2022-09-30T02:30:55;21.40;53.50
14705;DHT22;7442;50.840;3.396;2022-09-30T02:33:39;21.40;53.50
14705;DHT22;7442;50.840;3.396;2022-09-30T02:39:09;21.40;53.50
14705;DHT22;7442;50.840;3.396;2022-09-30T02:41:50;21.40;53.40
14705;DHT22;7442;50.840;3.396;2022-09-30T02:44:27;21.30;53.40
14705;DHT22;7442;50.840;3.396;2022-09-30T02:47:13;21.30;53.90
14705;DHT22;7442;50.840;3.396;2022-09-30T02:49:55;21.30;53.40
14705;DHT22;7442;50.840;3.396;2022-09-30T02:52:54;21.30;53.40
14705;DHT22;7442;50.840;3.396;2022-09-30T02:58:13;21.30;54.00
14705;DHT22;7442;50.840;3.396;2022-09-30T03:00:50;21.30;53.60
14705;DHT22;7442;50.840;3.396;2022-09-30T03:03:49;21.30;53.40
14705;DHT22;7442;50.840;3.396;2022-09-30T03:06:25;21.30;53.40
14705;DHT22;7442;50.840;3.396;2022-09-30T03:09:02;21.30;53.40
14705;DHT22;7442;50.840;3.396;2022-09-30T03:11:39;21.20;53.30
14705;DHT22;7442;50.840;3.396;2022-09-30T03:17:21;21.20;53.70
14705;DHT22;7442;50.840;3.396;2022-09-30T03:20:06;21.20;53.50
14705;DHT22;7442;50.840;3.396;2022-09-30T03:23:02;21.20;53.40
14705;DHT22;7442;50.840;3.396;2022-09-30T03:25:55;21.20;53.30
14705;DHT22;7442;50.840;3.396;2022-09-30T03:31:51;21.20;53.30
14705;DHT22;7442;50.840;3.396;2022-09-30T03:37:28;21.10;53.40
14705;DHT22;7442;50.840;3.396;2022-09-30T03:40:06;21.10;53.40
14705;DHT22;7442;50.840;3.396;2022-09-30T03:42:46;21.10;53.40
14705;DHT22;7442;50.840;3.396;2022-09-30T03:45:33;21.10;53.40
14705;DHT22;7442;50.840;3.396;2022-09-30T03:48:09;21.00;53.40
14705;DHT22;7442;50.840;3.396;2022-09-30T03:50:46;21.10;53.50
14705;DHT22;7442;50.840;3.396;2022-09-30T03:53:23;21.00;53.30
14705;DHT22;7442;50.840;3.396;2022-09-30T03:56:02;21.00;53.30
14705;DHT22;7442;50.840;3.396;2022-09-30T03:58:42;21.00;53.50
14705;DHT22;7442;50.840;3.396;2022-09-30T04:01:19;21.00;53.30
14705;DHT22;7442;50.840;3.396;2022-09-30T04:04:03;21.00;53.30
14705;DHT22;7442;50.840;3.396;2022-09-30T04:06:39;21.00;53.40
14705;DHT22;7442;50.840;3.396;2022-09-30T04:09:16;21.00;53.30
14705;DHT22;7442;50.840;3.396;2022-09-30T04:11:53;21.00;53.20
14705;DHT22;7442;50.840;3.396;2022-09-30T04:14:29;21.00;53.30
14705;DHT22;7442;50.840;3.396;2022-09-30T04:17:06;21.00;53.30
14705;DHT22;7442;50.840;3.396;2022-09-30T04:19:43;21.00;53.20
14705;DHT22;7442;50.840;3.396;2022-09-30T04:22:20;21.00;53.20
14705;DHT22;7442;50.840;3.396;2022-09-30T04:24:56;21.00;53.10
14705;DHT22;7442;50.840;3.396;2022-09-30T04:27:32;21.00;53.20
14705;DHT22;7442;50.840;3.396;2022-09-30T04:30:10;20.90;53.20
14705;DHT22;7442;50.840;3.396;2022-09-30T04:32:46;21.00;53.30
14705;DHT22;7442;50.840;3.396;2022-09-30T04:35:22;21.00;53.20
14705;DHT22;7442;50.840;3.396;2022-09-30T04:37:59;20.90;53.20
14705;DHT22;7442;50.840;3.396;2022-09-30T04:40:37;20.90;53.20
14705;DHT22;7442;50.840;3.396;2022-09-30T04:43:15;20.90;53.20
14705;DHT22;7442;50.840;3.396;2022-09-30T04:45:53;20.90;53.10
14705;DHT22;7442;50.840;3.396;2022-09-30T04:48:30;20.90;53.10
14705;DHT22;7442;50.840;3.396;2022-09-30T04:51:07;20.90;53.10
14705;DHT22;7442;50.840;3.396;2022-09-30T04:53:44;20.90;53.00
14705;DHT22;7442;50.840;3.396;2022-09-30T04:56:21;20.90;53.10
14705;DHT22;7442;50.840;3.396;2022-09-30T04:58:59;20.90;53.20
14705;DHT22;7442;50.840;3.396;2022-09-30T05:01:35;20.80;53.10
14705;DHT22;7442;50.840;3.396;2022-09-30T05:04:18;20.80;53.10
14705;DHT22;7442;50.840;3.396;2022-09-30T05:06:55;20.80;53.10
14705;DHT22;7442;50.840;3.396;2022-09-30T05:09:32;20.80;53.10
14705;DHT22;7442;50.840;3.396;2022-09-30T05:12:09;20.80;53.10
14705;DHT22;7442;50.840;3.396;2022-09-30T05:14:45;20.80;53.20
14705;DHT22;7442;50.840;3.396;2022-09-30T05:17:22;20.80;53.20
14705;DHT22;7442;50.840;3.396;2022-09-30T05:19:59;20.90;53.20
14705;DHT22;7442;50.840;3.396;2022-09-30T05:22:36;20.80;53.30
14705;DHT22;7442;50.840;3.396;2022-09-30T05:25:13;20.80;53.50
14705;DHT22;7442;50.840;3.396;2022-09-30T05:27:49;20.80;53.70
14705;DHT22;7442;50.840;3.396;2022-09-30T05:30:26;20.70;53.80
14705;DHT22;7442;50.840;3.396;2022-09-30T05:33:04;20.70;54.00
14705;DHT22;7442;50.840;3.396;2022-09-30T05:35:47;20.80;53.80
14705;DHT22;7442;50.840;3.396;2022-09-30T05:38:23;20.80;54.00
14705;DHT22;7442;50.840;3.396;2022-09-30T05:41:08;20.80;53.90
14705;DHT22;7442;50.840;3.396;2022-09-30T05:43:45;20.70;53.90
14705;DHT22;7442;50.840;3.396;2022-09-30T05:46:24;20.70;54.10
14705;DHT22;7442;50.840;3.396;2022-09-30T05:49:01;20.80;54.10
14705;DHT22;7442;50.840;3.396;2022-09-30T05:51:37;20.80;54.00
14705;DHT22;7442;50.840;3.396;2022-09-30T05:54:14;20.70;53.90
14705;DHT22;7442;50.840;3.396;2022-09-30T05:56:51;20.80;54.00
14705;DHT22;7442;50.840;3.396;2022-09-30T05:59:27;20.70;53.90
14705;DHT22;7442;50.840;3.396;2022-09-30T06:02:04;20.80;53.90
14705;DHT22;7442;50.840;3.396;2022-09-30T06:04:46;20.80;53.90
14705;DHT22;7442;50.840;3.396;2022-09-30T06:07:23;20.80;53.80
14705;DHT22;7442;50.840;3.396;2022-09-30T06:10:01;20.80;53.90
14705;DHT22;7442;50.840;3.396;2022-09-30T06:12:38;20.70;53.90
14705;DHT22;7442;50.840;3.396;2022-09-30T06:15:15;20.70;53.90
14705;DHT22;7442;50.840;3.396;2022-09-30T06:20:10;20.70;53.50
14705;DHT22;7442;50.840;3.396;2022-09-30T06:22:53;20.70;54.00
14705;DHT22;7442;50.840;3.396;2022-09-30T06:25:30;20.70;53.90
14705;DHT22;7442;50.840;3.396;2022-09-30T06:28:06;20.70;54.40
14705;DHT22;7442;50.840;3.396;2022-09-30T06:30:43;20.60;54.00
14705;DHT22;7442;50.840;3.396;2022-09-30T06:33:20;20.50;54.30
14705;DHT22;7442;50.840;3.396;2022-09-30T06:35:56;20.50;54.20
14705;DHT22;7442;50.840;3.396;2022-09-30T06:38:34;20.40;54.50
14705;DHT22;7442;50.840;3.396;2022-09-30T06:41:12;20.30;54.40
14705;DHT22;7442;50.840;3.396;2022-09-30T06:43:48;20.30;54.70
14705;DHT22;7442;50.840;3.396;2022-09-30T06:46:25;20.20;54.80
14705;DHT22;7442;50.840;3.396;2022-09-30T06:49:01;20.10;55.00
14705;DHT22;7442;50.840;3.396;2022-09-30T06:51:38;20.10;55.30
14705;DHT22;7442;50.840;3.396;2022-09-30T06:54:15;20.00;55.40
14705;DHT22;7442;50.840;3.396;2022-09-30T06:56:54;20.00;55.30
14705;DHT22;7442;50.840;3.396;2022-09-30T06:59:32;20.00;55.40
14705;DHT22;7442;50.840;3.396;2022-09-30T07:02:10;19.90;55.20
14705;DHT22;7442;50.840;3.396;2022-09-30T07:04:47;19.90;55.40
14705;DHT22;7442;50.840;3.396;2022-09-30T07:07:30;19.90;55.60
14705;DHT22;7442;50.840;3.396;2022-09-30T07:10:08;19.90;55.50
14705;DHT22;7442;50.840;3.396;2022-09-30T07:12:50;19.80;55.70
14705;DHT22;7442;50.840;3.396;2022-09-30T07:15:27;19.80;55.70
14705;DHT22;7442;50.840;3.396;2022-09-30T07:18:04;19.80;55.80
14705;DHT22;7442;50.840;3.396;2022-09-30T07:20:46;19.80;55.90
14705;DHT22;7442;50.840;3.396;2022-09-30T07:23:25;19.70;55.80
14705;DHT22;7442;50.840;3.396;2022-09-30T07:26:02;19.80;55.80
14705;DHT22;7442;50.840;3.396;2022-09-30T07:28:39;19.80;55.90
14705;DHT22;7442;50.840;3.396;2022-09-30T07:31:19;19.70;55.90
14705;DHT22;7442;50.840;3.396;2022-09-30T07:33:56;19.80;55.90
14705;DHT22;7442;50.840;3.396;2022-09-30T07:36:32;19.70;55.90
14705;DHT22;7442;50.840;3.396;2022-09-30T07:39:10;19.70;55.90
14705;DHT22;7442;50.840;3.396;2022-09-30T07:41:47;19.70;55.80
14705;DHT22;7442;50.840;3.396;2022-09-30T07:44:23;19.70;55.90
14705;DHT22;7442;50.840;3.396;2022-09-30T07:47:00;19.70;56.00
14705;DHT22;7442;50.840;3.396;2022-09-30T07:49:37;19.70;56.00
14705;DHT22;7442;50.840;3.396;2022-09-30T07:52:14;19.70;56.00
14705;DHT22;7442;50.840;3.396;2022-09-30T07:54:51;19.70;55.90
14705;DHT22;7442;50.840;3.396;2022-09-30T07:57:27;19.70;56.00
14705;DHT22;7442;50.840;3.396;2022-09-30T08:00:04;19.70;55.90
14705;DHT22;7442;50.840;3.396;2022-09-30T08:02:41;19.70;56.00
14705;DHT22;7442;50.840;3.396;2022-09-30T08:05:17;19.70;56.00
14705;DHT22;7442;50.840;3.396;2022-09-30T08:08:00;19.70;56.10
14705;DHT22;7442;50.840;3.396;2022-09-30T08:10:37;19.60;56.10
14705;DHT22;7442;50.840;3.396;2022-09-30T08:13:14;19.70;56.10
14705;DHT22;7442;50.840;3.396;2022-09-30T08:15:51;19.70;56.10
14705;DHT22;7442;50.840;3.396;2022-09-30T08:18:28;19.70;55.90
14705;DHT22;7442;50.840;3.396;2022-09-30T08:21:05;19.80;55.80
14705;DHT22;7442;50.840;3.396;2022-09-30T08:23:49;19.80;55.70
14705;DHT22;7442;50.840;3.396;2022-09-30T08:26:26;19.80;55.60
14705;DHT22;7442;50.840;3.396;2022-09-30T08:29:04;19.90;55.50
14705;DHT22;7442;50.840;3.396;2022-09-30T08:31:41;19.90;55.50
14705;DHT22;7442;50.840;3.396;2022-09-30T08:34:18;19.90;55.40
14705;DHT22;7442;50.840;3.396;2022-09-30T08:36:55;19.90;55.40
14705;DHT22;7442;50.840;3.396;2022-09-30T08:39:31;20.00;55.40
14705;DHT22;7442;50.840;3.396;2022-09-30T08:45:19;20.00;55.20
14705;DHT22;7442;50.840;3.396;2022-09-30T08:48:10;20.00;55.10
14705;DHT22;7442;50.840;3.396;2022-09-30T08:51:00;20.10;55.20
14705;DHT22;7442;50.840;3.396;2022-09-30T08:53:39;20.10;55.00
14705;DHT22;7442;50.840;3.396;2022-09-30T08:56:23;20.10;54.90
14705;DHT22;7442;50.840;3.396;2022-09-30T08:59:09;20.20;54.90
14705;DHT22;7442;50.840;3.396;2022-09-30T09:01:46;20.20;54.80
14705;DHT22;7442;50.840;3.396;2022-09-30T09:04:24;20.20;54.70
14705;DHT22;7442;50.840;3.396;2022-09-30T09:10:27;20.30;54.50
14705;DHT22;7442;50.840;3.396;2022-09-30T09:18:57;20.50;54.10
14705;DHT22;7442;50.840;3.396;2022-09-30T09:21:54;20.50;54.10
14705;DHT22;7442;50.840;3.396;2022-09-30T09:24:43;20.60;54.00
14705;DHT22;7442;50.840;3.396;2022-09-30T09:30:24;20.70;53.80
14705;DHT22;7442;50.840;3.396;2022-09-30T09:33:10;20.80;53.70
14705;DHT22;7442;50.840;3.396;2022-09-30T09:38:58;20.90;53.60
14705;DHT22;7442;50.840;3.396;2022-09-30T09:47:09;21.00;53.50
14705;DHT22;7442;50.840;3.396;2022-09-30T09:49:59;21.00;53.30
14705;DHT22;7442;50.840;3.396;2022-09-30T09:52:43;21.10;53.30
14705;DHT22;7442;50.840;3.396;2022-09-30T09:55:20;21.10;53.20
14705;DHT22;7442;50.840;3.396;2022-09-30T09:58:11;21.20;53.20
14705;DHT22;7442;50.840;3.396;2022-09-30T10:00:52;21.20;52.50
14705;DHT22;7442;50.840;3.396;2022-09-30T10:03:29;21.20;53.10
14705;DHT22;7442;50.840;3.396;2022-09-30T10:06:08;21.20;53.20
14705;DHT22;7442;50.840;3.396;2022-09-30T10:08:54;21.30;53.00
14705;DHT22;7442;50.840;3.396;2022-09-30T10:11:30;21.30;53.00
14705;DHT22;7442;50.840;3.396;2022-09-30T10:14:09;21.30;53.00
14705;DHT22;7442;50.840;3.396;2022-09-30T10:16:48;21.40;52.80
14705;DHT22;7442;50.840;3.396;2022-09-30T10:19:26;21.50;52.80
14705;DHT22;7442;50.840;3.396;2022-09-30T10:25:20;21.60;52.60
14705;DHT22;7442;50.840;3.396;2022-09-30T10:28:18;21.60;52.50
14705;DHT22;7442;50.840;3.396;2022-09-30T10:30:44;21.60;52.50
14705;DHT22;7442;50.840;3.396;2022-09-30T10:33:34;21.70;52.50
14705;DHT22;7442;50.840;3.396;2022-09-30T10:36:16;21.70;52.40
14705;DHT22;7442;50.840;3.396;2022-09-30T10:38:57;21.70;52.40
14705;DHT22;7442;50.840;3.396;2022-09-30T10:41:33;21.70;52.40
14705;DHT22;7442;50.840;3.396;2022-09-30T10:44:15;21.70;52.60
14705;DHT22;7442;50.840;3.396;2022-09-30T10:46:57;21.60;52.60
14705;DHT22;7442;50.840;3.396;2022-09-30T10:49:43;21.70;52.90
14705;DHT22;7442;50.840;3.396;2022-09-30T10:52:20;21.70;52.50
14705;DHT22;7442;50.840;3.396;2022-09-30T11:01:05;21.90;52.40
14705;DHT22;7442;50.840;3.396;2022-09-30T11:06:32;21.90;52.50
14705;DHT22;7442;50.840;3.396;2022-09-30T11:09:34;21.80;52.60
14705;DHT22;7442;50.840;3.396;2022-09-30T11:12:25;21.80;52.70
14705;DHT22;7442;50.840;3.396;2022-09-30T11:18:11;21.90;52.50
14705;DHT22;7442;50.840;3.396;2022-09-30T11:20:50;21.90;52.50
14705;DHT22;7442;50.840;3.396;2022-09-30T11:23:48;21.80;52.80
14705;DHT22;7442;50.840;3.396;2022-09-30T11:26:49;21.80;53.00
14705;DHT22;7442;50.840;3.396;2022-09-30T11:30:28;21.90;52.80
14705;DHT22;7442;50.840;3.396;2022-09-30T11:41:12;21.80;53.00
14705;DHT22;7442;50.840;3.396;2022-09-30T11:46:46;21.80;53.10
14705;DHT22;7442;50.840;3.396;2022-09-30T11:58:03;21.70;53.60
14705;DHT22;7442;50.840;3.396;2022-09-30T12:00:42;21.80;53.30
14705;DHT22;7442;50.840;3.396;2022-09-30T12:03:24;21.80;53.50
14705;DHT22;7442;50.840;3.396;2022-09-30T12:06:23;21.70;53.60
14705;DHT22;7442;50.840;3.396;2022-09-30T12:09:05;21.70;53.70
14705;DHT22;7442;50.840;3.396;2022-09-30T12:11:48;21.80;53.40
14705;DHT22;7442;50.840;3.396;2022-09-30T12:14:30;21.70;53.60
14705;DHT22;7442;50.840;3.396;2022-09-30T12:17:18;21.70;53.70
14705;DHT22;7442;50.840;3.396;2022-09-30T12:19:52;21.70;53.70
14705;DHT22;7442;50.840;3.396;2022-09-30T12:22:37;21.70;53.60
14705;DHT22;7442;50.840;3.396;2022-09-30T12:25:25;21.80;54.20
14705;DHT22;7442;50.840;3.396;2022-09-30T12:28:20;21.80;53.50
14705;DHT22;7442;50.840;3.396;2022-09-30T12:34:30;21.90;53.40
14705;DHT22;7442;50.840;3.396;2022-09-30T12:48:13;21.80;53.60
14705;DHT22;7442;50.840;3.396;2022-09-30T12:50:53;21.90;53.70
14705;DHT22;7442;50.840;3.396;2022-09-30T12:53:34;21.90;53.60
14705;DHT22;7442;50.840;3.396;2022-09-30T12:56:13;21.90;53.50
14705;DHT22;7442;50.840;3.396;2022-09-30T12:58:51;22.00;53.50
14705;DHT22;7442;50.840;3.396;2022-09-30T13:01:35;22.00;53.30
14705;DHT22;7442;50.840;3.396;2022-09-30T13:04:29;22.00;53.30
14705;DHT22;7442;50.840;3.396;2022-09-30T13:07:12;22.00;53.30
14705;DHT22;7442;50.840;3.396;2022-09-30T13:10:20;22.10;53.30
14705;DHT22;7442;50.840;3.396;2022-09-30T13:12:44;22.10;53.30
14705;DHT22;7442;50.840;3.396;2022-09-30T13:23:52;22.20;53.30
14705;DHT22;7442;50.840;3.396;2022-09-30T13:26:40;22.10;53.20
14705;DHT22;7442;50.840;3.396;2022-09-30T13:32:04;22.20;53.30
14705;DHT22;7442;50.840;3.396;2022-09-30T13:34:52;22.20;53.90
14705;DHT22;7442;50.840;3.396;2022-09-30T13:37:35;22.20;53.30
14705;DHT22;7442;50.840;3.396;2022-09-30T13:40:13;22.20;53.40
14705;DHT22;7442;50.840;3.396;2022-09-30T13:42:52;22.20;53.20
14705;DHT22;7442;50.840;3.396;2022-09-30T13:45:34;22.20;53.10
14705;DHT22;7442;50.840;3.396;2022-09-30T13:48:19;22.20;53.10
14705;DHT22;7442;50.840;3.396;2022-09-30T13:50:58;22.30;53.10
14705;DHT22;7442;50.840;3.396;2022-09-30T13:53:41;22.30;53.10
14705;DHT22;7442;50.840;3.396;2022-09-30T13:56:22;22.30;53.10
14705;DHT22;7442;50.840;3.396;2022-09-30T14:05:14;22.30;53.10
14705;DHT22;7442;50.840;3.396;2022-09-30T14:11:10;22.30;53.10
14705;DHT22;7442;50.840;3.396;2022-09-30T14:14:14;22.30;53.20
14705;DHT22;7442;50.840;3.396;2022-09-30T14:17:10;22.30;53.20
14705;DHT22;7442;50.840;3.396;2022-09-30T14:22:34;22.30;53.10
14705;DHT22;7442;50.840;3.396;2022-09-30T14:25:19;22.30;53.10
14705;DHT22;7442;50.840;3.396;2022-09-30T14:28:15;22.30;53.20
14705;DHT22;7442;50.840;3.396;2022-09-30T14:30:58;22.30;53.20
14705;DHT22;7442;50.840;3.396;2022-09-30T14:33:46;22.30;53.20
14705;DHT22;7442;50.840;3.396;2022-09-30T14:36:23;22.30;53.20
14705;DHT22;7442;50.840;3.396;2022-09-30T14:39:00;22.30;53.30
14705;DHT22;7442;50.840;3.396;2022-09-30T14:41:37;22.30;53.40
14705;DHT22;7442;50.840;3.396;2022-09-30T14:44:16;22.30;53.40
14705;DHT22;7442;50.840;3.396;2022-09-30T14:46:55;22.30;53.40
14705;DHT22;7442;50.840;3.396;2022-09-30T14:49:35;22.20;53.30
14705;DHT22;7442;50.840;3.396;2022-09-30T14:52:34;22.30;53.40
14705;DHT22;7442;50.840;3.396;2022-09-30T14:58:25;22.20;53.50
14705;DHT22;7442;50.840;3.396;2022-09-30T15:01:07;22.20;53.60
14705;DHT22;7442;50.840;3.396;2022-09-30T15:03:47;22.20;53.60
14705;DHT22;7442;50.840;3.396;2022-09-30T15:06:25;22.20;53.60
14705;DHT22;7442;50.840;3.396;2022-09-30T15:09:07;22.20;53.70
14705;DHT22;7442;50.840;3.396;2022-09-30T15:11:52;22.20;53.70
14705;DHT22;7442;50.840;3.396;2022-09-30T15:14:28;22.20;53.60
14705;DHT22;7442;50.840;3.396;2022-09-30T15:17:29;22.20;53.60
14705;DHT22;7442;50.840;3.396;2022-09-30T15:20:23;22.10;53.70
14705;DHT22;7442;50.840;3.396;2022-09-30T15:22:55;22.10;53.80
14705;DHT22;7442;50.840;3.396;2022-09-30T15:25:35;22.10;53.80
14705;DHT22;7442;50.840;3.396;2022-09-30T15:28:18;22.10;53.90
14705;DHT22;7442;50.840;3.396;2022-09-30T15:30:56;22.10;53.80
14705;DHT22;7442;50.840;3.396;2022-09-30T15:33:34;22.10;53.80
14705;DHT22;7442;50.840;3.396;2022-09-30T15:36:16;22.10;53.80
14705;DHT22;7442;50.840;3.396;2022-09-30T15:38:53;22.10;53.80
14705;DHT22;7442;50.840;3.396;2022-09-30T15:41:29;22.00;53.80
14705;DHT22;7442;50.840;3.396;2022-09-30T15:44:14;22.10;53.80
14705;DHT22;7442;50.840;3.396;2022-09-30T15:47:07;22.00;53.80
14705;DHT22;7442;50.840;3.396;2022-09-30T15:49:46;22.00;53.60
14705;DHT22;7442;50.840;3.396;2022-09-30T15:52:38;22.00;53.70
14705;DHT22;7442;50.840;3.396;2022-09-30T15:55:34;22.00;53.90
14705;DHT22;7442;50.840;3.396;2022-09-30T16:01:15;21.90;53.80
14705;DHT22;7442;50.840;3.396;2022-09-30T16:03:59;21.90;53.90
14705;DHT22;7442;50.840;3.396;2022-09-30T16:06:47;21.90;53.70
14705;DHT22;7442;50.840;3.396;2022-09-30T16:12:17;21.90;54.00
14705;DHT22;7442;50.840;3.396;2022-09-30T16:17:47;21.80;54.10
14705;DHT22;7442;50.840;3.396;2022-09-30T16:20:24;21.90;54.10
14705;DHT22;7442;50.840;3.396;2022-09-30T16:23:01;21.80;54.60
14705;DHT22;7442;50.840;3.396;2022-09-30T16:25:39;21.90;54.20
14705;DHT22;7442;50.840;3.396;2022-09-30T16:28:22;21.80;54.20
14705;DHT22;7442;50.840;3.396;2022-09-30T16:30:59;21.80;54.20
14705;DHT22;7442;50.840;3.396;2022-09-30T16:33:39;21.80;54.20
14705;DHT22;7442;50.840;3.396;2022-09-30T16:36:16;21.80;54.20
14705;DHT22;7442;50.840;3.396;2022-09-30T16:38:53;21.80;54.30
14705;DHT22;7442;50.840;3.396;2022-09-30T16:41:29;21.70;54.00
14705;DHT22;7442;50.840;3.396;2022-09-30T16:44:06;21.80;54.40
14705;DHT22;7442;50.840;3.396;2022-09-30T16:46:43;21.70;54.30
14705;DHT22;7442;50.840;3.396;2022-09-30T16:49:20;21.80;54.30
14705;DHT22;7442;50.840;3.396;2022-09-30T16:51:57;21.70;54.80
14705;DHT22;7442;50.840;3.396;2022-09-30T16:54:33;21.70;54.40
14705;DHT22;7442;50.840;3.396;2022-09-30T16:57:12;21.70;54.30
14705;DHT22;7442;50.840;3.396;2022-09-30T16:59:49;21.70;54.30
14705;DHT22;7442;50.840;3.396;2022-09-30T17:02:26;21.70;54.40
14705;DHT22;7442;50.840;3.396;2022-09-30T17:05:02;21.70;54.50
14705;DHT22;7442;50.840;3.396;2022-09-30T17:07:39;21.60;54.50
14705;DHT22;7442;50.840;3.396;2022-09-30T17:10:28;21.60;54.50
14705;DHT22;7442;50.840;3.396;2022-09-30T17:13:09;21.60;54.50
14705;DHT22;7442;50.840;3.396;2022-09-30T17:15:49;21.60;54.40
14705;DHT22;7442;50.840;3.396;2022-09-30T17:18:26;21.60;54.60
14705;DHT22;7442;50.840;3.396;2022-09-30T17:21:03;21.60;54.50
14705;DHT22;7442;50.840;3.396;2022-09-30T17:23:40;21.60;54.60
14705;DHT22;7442;50.840;3.396;2022-09-30T17:26:16;21.60;54.70
14705;DHT22;7442;50.840;3.396;2022-09-30T17:29:00;21.60;54.70
14705;DHT22;7442;50.840;3.396;2022-09-30T17:31:37;21.50;54.70
14705;DHT22;7442;50.840;3.396;2022-09-30T17:34:13;21.50;54.90
14705;DHT22;7442;50.840;3.396;2022-09-30T17:36:50;21.50;54.90
14705;DHT22;7442;50.840;3.396;2022-09-30T17:39:29;21.50;54.90
14705;DHT22;7442;50.840;3.396;2022-09-30T17:42:10;21.50;54.90
14705;DHT22;7442;50.840;3.396;2022-09-30T17:45:01;21.50;54.90
14705;DHT22;7442;50.840;3.396;2022-09-30T17:47:37;21.50;54.80
14705;DHT22;7442;50.840;3.396;2022-09-30T17:50:16;21.50;54.90
14705;DHT22;7442;50.840;3.396;2022-09-30T17:52:54;21.40;54.90
14705;DHT22;7442;50.840;3.396;2022-09-30T17:55:31;21.40;54.90
14705;DHT22;7442;50.840;3.396;2022-09-30T17:58:10;21.40;55.10
14705;DHT22;7442;50.840;3.396;2022-09-30T18:00:46;21.40;55.00
14705;DHT22;7442;50.840;3.396;2022-09-30T18:03:23;21.40;54.80
14705;DHT22;7442;50.840;3.396;2022-09-30T18:06:01;21.40;55.10
14705;DHT22;7442;50.840;3.396;2022-09-30T18:08:38;21.40;55.10
14705;DHT22;7442;50.840;3.396;2022-09-30T18:11:23;21.40;55.10
14705;DHT22;7442;50.840;3.396;2022-09-30T18:14:08;21.40;55.20
14705;DHT22;7442;50.840;3.396;2022-09-30T18:16:45;21.30;55.10
14705;DHT22;7442;50.840;3.396;2022-09-30T18:19:22;21.30;55.10
14705;DHT22;7442;50.840;3.396;2022-09-30T18:21:58;21.30;55.00
14705;DHT22;7442;50.840;3.396;2022-09-30T18:24:35;21.30;55.00
14705;DHT22;7442;50.840;3.396;2022-09-30T18:27:30;21.30;55.10
14705;DHT22;7442;50.840;3.396;2022-09-30T18:30:13;21.30;55.20
14705;DHT22;7442;50.840;3.396;2022-09-30T18:32:52;21.30;55.20
14705;DHT22;7442;50.840;3.396;2022-09-30T18:35:29;21.20;55.20
14705;DHT22;7442;50.840;3.396;2022-09-30T18:38:06;21.30;55.30
14705;DHT22;7442;50.840;3.396;2022-09-30T18:40:44;21.30;55.30
14705;DHT22;7442;50.840;3.396;2022-09-30T18:43:20;21.30;55.20
14705;DHT22;7442;50.840;3.396;2022-09-30T18:45:58;21.20;55.30
14705;DHT22;7442;50.840;3.396;2022-09-30T18:48:36;21.20;55.30
14705;DHT22;7442;50.840;3.396;2022-09-30T18:51:14;21.20;55.40
14705;DHT22;7442;50.840;3.396;2022-09-30T18:53:59;21.20;55.30
14705;DHT22;7442;50.840;3.396;2022-09-30T18:56:32;21.20;55.40
14705;DHT22;7442;50.840;3.396;2022-09-30T18:59:10;21.20;55.40
14705;DHT22;7442;50.840;3.396;2022-09-30T19:01:48;21.20;55.30
14705;DHT22;7442;50.840;3.396;2022-09-30T19:04:25;21.20;55.40
14705;DHT22;7442;50.840;3.396;2022-09-30T19:07:02;21.10;55.30
14705;DHT22;7442;50.840;3.396;2022-09-30T19:09:39;21.10;55.30
14705;DHT22;7442;50.840;3.396;2022-09-30T19:12:16;21.10;55.40
14705;DHT22;7442;50.840;3.396;2022-09-30T19:15:00;21.20;55.40
14705;DHT22;7442;50.840;3.396;2022-09-30T19:17:44;21.10;55.30
14705;DHT22;7442;50.840;3.396;2022-09-30T19:20:21;21.10;55.30
14705;DHT22;7442;50.840;3.396;2022-09-30T19:22:57;21.10;55.30
14705;DHT22;7442;50.840;3.396;2022-09-30T19:25:35;21.10;55.30
14705;DHT22;7442;50.840;3.396;2022-09-30T19:28:13;21.10;55.30
14705;DHT22;7442;50.840;3.396;2022-09-30T19:30:50;21.10;55.30
14705;DHT22;7442;50.840;3.396;2022-09-30T19:33:27;21.10;55.30